sensor_id;sensor_type;location;lat;lon;timestamp;temperature;humidity
78475;SHT31;67766;51.964;5.660;2023-09-12T00:01:14;27.3;58.3
78475;SHT31;67766;51.964;5.660;2023-09-12T00:03:46;27.3;58.2
78475;SHT31;67766;51.964;5.660;2023-09-12T00:06:15;27.3;58.1
78475;SHT31;67766;51.964;5.660;2023-09-12T00:08:45;27.2;58.4
78475;SHT31;67766;51.964;5.660;2023-09-12T00:11:14;27.2;58.4
78475;SHT31;67766;51.964;5.660;2023-09-12T00:13:44;27.1;58.7
78475;SHT31;67766;51.964;5.660;2023-09-12T00:16:14;27.1;58.8
78475;SHT31;67766;51.964;5.660;2023-09-12T00:18:45;27.0;58.8
78475;SHT31;67766;51.964;5.660;2023-09-12T00:21:15;27.0;59.1
78475;SHT31;67766;51.964;5.660;2023-09-12T00:23:44;27.0;59.2
78475;SHT31;67766;51.964;5.660;2023-09-12T00:26:14;26.9;59.2
78475;SHT31;67766;51.964;5.660;2023-09-12T00:28:44;26.9;58.8
78475;SHT31;67766;51.964;5.660;2023-09-12T00:31:13;26.8;59.0
78475;SHT31;67766;51.964;5.660;2023-09-12T00:33:43;26.8;59.1
78475;SHT31;67766;51.964;5.660;2023-09-12T00:36:12;26.7;59.5
78475;SHT31;67766;51.964;5.660;2023-09-12T00:38:42;26.7;59.5
78475;SHT31;67766;51.964;5.660;2023-09-12T00:41:11;26.6;59.6
78475;SHT31;67766;51.964;5.660;2023-09-12T00:43:40;26.6;59.9
78475;SHT31;67766;51.964;5.660;2023-09-12T00:46:10;26.5;60.1
78475;SHT31;67766;51.964;5.660;2023-09-12T00:48:39;26.5;60.0
78475;SHT31;67766;51.964;5.660;2023-09-12T00:51:12;26.4;60.3
78475;SHT31;67766;51.964;5.660;2023-09-12T00:53:43;26.4;60.6
78475;SHT31;67766;51.964;5.660;2023-09-12T00:56:13;26.4;60.8
78475;SHT31;67766;51.964;5.660;2023-09-12T00:58:43;26.4;60.9
78475;SHT31;67766;51.964;5.660;2023-09-12T01:01:14;26.3;60.8
78475;SHT31;67766;51.964;5.660;2023-09-12T01:03:43;26.3;60.7
78475;SHT31;67766;51.964;5.660;2023-09-12T01:06:15;26.2;60.8
78475;SHT31;67766;51.964;5.660;2023-09-12T01:08:47;26.2;61.1
78475;SHT31;67766;51.964;5.660;2023-09-12T01:11:17;26.1;61.4
78475;SHT31;67766;51.964;5.660;2023-09-12T01:13:46;26.0;61.7
78475;SHT31;67766;51.964;5.660;2023-09-12T01:16:16;25.9;61.9
78475;SHT31;67766;51.964;5.660;2023-09-12T01:18:46;25.9;62.2
78475;SHT31;67766;51.964;5.660;2023-09-12T01:21:41;25.8;62.5
78475;SHT31;67766;51.964;5.660;2023-09-12T01:24:45;25.8;62.7
78475;SHT31;67766;51.964;5.660;2023-09-12T01:27:22;25.8;62.7
78475;SHT31;67766;51.964;5.660;2023-09-12T01:29:57;25.8;63.0
78475;SHT31;67766;51.964;5.660;2023-09-12T01:32:31;25.8;63.0
78475;SHT31;67766;51.964;5.660;2023-09-12T01:35:01;25.7;63.0
78475;SHT31;67766;51.964;5.660;2023-09-12T01:37:32;25.7;63.0
78475;SHT31;67766;51.964;5.660;2023-09-12T01:40:02;25.7;63.0
78475;SHT31;67766;51.964;5.660;2023-09-12T01:42:36;25.7;63.0
78475;SHT31;67766;51.964;5.660;2023-09-12T01:45:10;25.8;62.7
78475;SHT31;67766;51.964;5.660;2023-09-12T01:47:41;25.8;62.7
78475;SHT31;67766;51.964;5.660;2023-09-12T01:50:12;25.8;62.6
78475;SHT31;67766;51.964;5.660;2023-09-12T01:52:46;25.8;62.7
78475;SHT31;67766;51.964;5.660;2023-09-12T01:55:16;25.8;62.5
78475;SHT31;67766;51.964;5.660;2023-09-12T01:57:48;25.8;62.4
78475;SHT31;67766;51.964;5.660;2023-09-12T02:00:19;25.9;62.3
78475;SHT31;67766;51.964;5.660;2023-09-12T02:02:49;25.9;62.2
78475;SHT31;67766;51.964;5.660;2023-09-12T02:05:21;25.9;62.1
78475;SHT31;67766;51.964;5.660;2023-09-12T02:07:51;26.0;61.9
78475;SHT31;67766;51.964;5.660;2023-09-12T02:10:20;26.0;61.7
78475;SHT31;67766;51.964;5.660;2023-09-12T02:12:50;26.0;61.6
78475;SHT31;67766;51.964;5.660;2023-09-12T02:15:19;26.0;61.5
78475;SHT31;67766;51.964;5.660;2023-09-12T02:17:49;26.1;61.3
78475;SHT31;67766;51.964;5.660;2023-09-12T02:20:18;26.1;61.2
78475;SHT31;67766;51.964;5.660;2023-09-12T02:22:48;26.1;61.1
78475;SHT31;67766;51.964;5.660;2023-09-12T02:25:18;26.1;61.0
78475;SHT31;67766;51.964;5.660;2023-09-12T02:27:47;26.0;61.0
78475;SHT31;67766;51.964;5.660;2023-09-12T02:30:17;26.0;61.0
78475;SHT31;67766;51.964;5.660;2023-09-12T02:32:46;26.0;61.0
78475;SHT31;67766;51.964;5.660;2023-09-12T02:35:18;26.0;61.0
78475;SHT31;67766;51.964;5.660;2023-09-12T02:37:47;25.9;61.1
78475;SHT31;67766;51.964;5.660;2023-09-12T02:40:17;25.9;61.3
78475;SHT31;67766;51.964;5.660;2023-09-12T02:42:46;25.8;61.5
78475;SHT31;67766;51.964;5.660;2023-09-12T02:45:16;25.8;61.6
78475;SHT31;67766;51.964;5.660;2023-09-12T02:47:45;25.8;61.6
78475;SHT31;67766;51.964;5.660;2023-09-12T02:50:15;25.8;61.7
78475;SHT31;67766;51.964;5.660;2023-09-12T02:52:46;25.8;61.7
78475;SHT31;67766;51.964;5.660;2023-09-12T02:55:16;25.7;61.6
78475;SHT31;67766;51.964;5.660;2023-09-12T02:57:46;25.7;61.6
78475;SHT31;67766;51.964;5.660;2023-09-12T03:00:16;25.7;61.7
78475;SHT31;67766;51.964;5.660;2023-09-12T03:02:47;25.7;61.5
78475;SHT31;67766;51.964;5.660;2023-09-12T03:05:16;25.6;61.6
78475;SHT31;67766;51.964;5.660;2023-09-12T03:07:46;25.6;61.6
78475;SHT31;67766;51.964;5.660;2023-09-12T03:10:16;25.5;61.8
78475;SHT31;67766;51.964;5.660;2023-09-12T03:12:46;25.5;62.0
78475;SHT31;67766;51.964;5.660;2023-09-12T03:15:15;25.5;62.0
78475;SHT31;67766;51.964;5.660;2023-09-12T03:17:45;25.4;61.8
78475;SHT31;67766;51.964;5.660;2023-09-12T03:20:14;25.4;62.0
78475;SHT31;67766;51.964;5.660;2023-09-12T03:22:45;25.3;62.0
78475;SHT31;67766;51.964;5.660;2023-09-12T03:25:15;25.3;62.3
78475;SHT31;67766;51.964;5.660;2023-09-12T03:27:44;25.3;62.6
78475;SHT31;67766;51.964;5.660;2023-09-12T03:30:13;25.3;62.6
78475;SHT31;67766;51.964;5.660;2023-09-12T03:32:43;25.2;62.7
78475;SHT31;67766;51.964;5.660;2023-09-12T03:35:12;25.2;62.8
78475;SHT31;67766;51.964;5.660;2023-09-12T03:37:42;25.2;62.9
78475;SHT31;67766;51.964;5.660;2023-09-12T03:40:14;25.2;63.1
78475;SHT31;67766;51.964;5.660;2023-09-12T03:42:43;25.2;63.1
78475;SHT31;67766;51.964;5.660;2023-09-12T03:45:13;25.2;62.9
78475;SHT31;67766;51.964;5.660;2023-09-12T03:47:42;25.2;62.7
78475;SHT31;67766;51.964;5.660;2023-09-12T03:50:14;25.2;62.8
78475;SHT31;67766;51.964;5.660;2023-09-12T03:52:43;25.1;62.7
78475;SHT31;67766;51.964;5.660;2023-09-12T03:55:13;25.1;62.5
78475;SHT31;67766;51.964;5.660;2023-09-12T03:57:42;25.1;62.6
78475;SHT31;67766;51.964;5.660;2023-09-12T04:00:15;25.0;62.9
78475;SHT31;67766;51.964;5.660;2023-09-12T04:02:45;25.0;63.0
78475;SHT31;67766;51.964;5.660;2023-09-12T04:05:15;25.0;63.2
78475;SHT31;67766;51.964;5.660;2023-09-12T04:07:45;25.0;63.3
78475;SHT31;67766;51.964;5.660;2023-09-12T04:10:17;25.0;63.4
78475;SHT31;67766;51.964;5.660;2023-09-12T04:12:46;25.0;63.4
78475;SHT31;67766;51.964;5.660;2023-09-12T04:15:16;25.0;63.5
78475;SHT31;67766;51.964;5.660;2023-09-12T04:17:45;25.1;63.3
78475;SHT31;67766;51.964;5.660;2023-09-12T04:20:15;25.1;63.3
78475;SHT31;67766;51.964;5.660;2023-09-12T04:22:45;25.1;63.2
78475;SHT31;67766;51.964;5.660;2023-09-12T04:25:14;25.2;63.1
78475;SHT31;67766;51.964;5.660;2023-09-12T04:27:43;25.2;63.0
78475;SHT31;67766;51.964;5.660;2023-09-12T04:30:15;25.2;63.1
78475;SHT31;67766;51.964;5.660;2023-09-12T04:32:45;25.2;62.9
78475;SHT31;67766;51.964;5.660;2023-09-12T04:35:15;25.3;62.9
78475;SHT31;67766;51.964;5.660;2023-09-12T04:37:46;25.3;63.0
78475;SHT31;67766;51.964;5.660;2023-09-12T04:40:16;25.3;62.8
78475;SHT31;67766;51.964;5.660;2023-09-12T04:42:46;25.4;62.5
78475;SHT31;67766;51.964;5.660;2023-09-12T04:45:15;25.4;62.5
78475;SHT31;67766;51.964;5.660;2023-09-12T04:47:45;25.4;62.4
78475;SHT31;67766;51.964;5.660;2023-09-12T04:50:14;25.4;62.3
78475;SHT31;67766;51.964;5.660;2023-09-12T04:52:44;25.4;62.1
78475;SHT31;67766;51.964;5.660;2023-09-12T04:55:13;25.4;61.5
78475;SHT31;67766;51.964;5.660;2023-09-12T04:57:43;25.4;61.4
78475;SHT31;67766;51.964;5.660;2023-09-12T05:00:13;25.4;61.5
78475;SHT31;67766;51.964;5.660;2023-09-12T05:02:43;25.3;61.5
78475;SHT31;67766;51.964;5.660;2023-09-12T05:05:14;25.3;61.4
78475;SHT31;67766;51.964;5.660;2023-09-12T05:07:43;25.3;61.6
78475;SHT31;67766;51.964;5.660;2023-09-12T05:10:13;25.2;61.8
78475;SHT31;67766;51.964;5.660;2023-09-12T05:12:43;25.2;61.5
78475;SHT31;67766;51.964;5.660;2023-09-12T05:15:12;25.2;61.5
78475;SHT31;67766;51.964;5.660;2023-09-12T05:17:42;25.1;61.8
78475;SHT31;67766;51.964;5.660;2023-09-12T05:20:13;25.0;62.3
78475;SHT31;67766;51.964;5.660;2023-09-12T05:22:43;25.0;62.7
78475;SHT31;67766;51.964;5.660;2023-09-12T05:25:12;25.0;62.9
78475;SHT31;67766;51.964;5.660;2023-09-12T05:27:42;25.0;63.2
78475;SHT31;67766;51.964;5.660;2023-09-12T05:30:14;25.0;63.4
78475;SHT31;67766;51.964;5.660;2023-09-12T05:32:44;25.0;63.5
78475;SHT31;67766;51.964;5.660;2023-09-12T05:35:14;25.0;63.5
78475;SHT31;67766;51.964;5.660;2023-09-12T05:37:43;25.0;63.5
78475;SHT31;67766;51.964;5.660;2023-09-12T05:40:12;24.9;63.5
78475;SHT31;67766;51.964;5.660;2023-09-12T05:42:43;24.9;63.7
78475;SHT31;67766;51.964;5.660;2023-09-12T05:45:12;24.9;63.9
78475;SHT31;67766;51.964;5.660;2023-09-12T05:47:42;24.9;64.0
78475;SHT31;67766;51.964;5.660;2023-09-12T05:50:11;24.9;64.0
78475;SHT31;67766;51.964;5.660;2023-09-12T05:52:41;24.9;63.9
78475;SHT31;67766;51.964;5.660;2023-09-12T05:55:12;24.8;63.8
78475;SHT31;67766;51.964;5.660;2023-09-12T05:57:45;24.8;64.0
78475;SHT31;67766;51.964;5.660;2023-09-12T06:00:17;24.8;64.0
78475;SHT31;67766;51.964;5.660;2023-09-12T06:02:47;24.8;64.1
78475;SHT31;67766;51.964;5.660;2023-09-12T06:05:17;24.8;64.2
78475;SHT31;67766;51.964;5.660;2023-09-12T06:07:47;24.7;64.5
78475;SHT31;67766;51.964;5.660;2023-09-12T06:10:16;24.7;64.6
78475;SHT31;67766;51.964;5.660;2023-09-12T06:12:45;24.7;64.8
78475;SHT31;67766;51.964;5.660;2023-09-12T06:15:15;24.6;65.0
78475;SHT31;67766;51.964;5.660;2023-09-12T06:17:45;24.6;65.4
78475;SHT31;67766;51.964;5.660;2023-09-12T06:20:14;24.5;65.6
78475;SHT31;67766;51.964;5.660;2023-09-12T06:22:43;24.5;65.7
78475;SHT31;67766;51.964;5.660;2023-09-12T06:25:13;24.4;65.9
78475;SHT31;67766;51.964;5.660;2023-09-12T06:27:42;24.4;66.1
78475;SHT31;67766;51.964;5.660;2023-09-12T06:30:13;24.4;66.2
78475;SHT31;67766;51.964;5.660;2023-09-12T06:32:42;24.4;66.2
78475;SHT31;67766;51.964;5.660;2023-09-12T06:35:12;24.4;66.6
78475;SHT31;67766;51.964;5.660;2023-09-12T06:37:43;24.4;66.2
78475;SHT31;67766;51.964;5.660;2023-09-12T06:40:16;24.4;66.2
78475;SHT31;67766;51.964;5.660;2023-09-12T06:42:45;24.5;66.3
78475;SHT31;67766;51.964;5.660;2023-09-12T06:45:15;24.5;66.3
78475;SHT31;67766;51.964;5.660;2023-09-12T06:47:45;24.5;66.3
78475;SHT31;67766;51.964;5.660;2023-09-12T06:50:14;24.5;65.9
78475;SHT31;67766;51.964;5.660;2023-09-12T06:52:46;24.5;66.2
78475;SHT31;67766;51.964;5.660;2023-09-12T06:55:15;24.5;66.3
78475;SHT31;67766;51.964;5.660;2023-09-12T06:57:45;24.5;66.2
78475;SHT31;67766;51.964;5.660;2023-09-12T07:00:15;24.5;66.2
78475;SHT31;67766;51.964;5.660;2023-09-12T07:02:44;24.6;66.2
78475;SHT31;67766;51.964;5.660;2023-09-12T07:05:14;24.6;66.2
78475;SHT31;67766;51.964;5.660;2023-09-12T07:07:44;24.6;66.1
78475;SHT31;67766;51.964;5.660;2023-09-12T07:10:13;24.6;66.4
78475;SHT31;67766;51.964;5.660;2023-09-12T07:12:42;24.6;66.3
78475;SHT31;67766;51.964;5.660;2023-09-12T07:15:14;24.6;66.4
78475;SHT31;67766;51.964;5.660;2023-09-12T07:17:43;24.6;66.3
78475;SHT31;67766;51.964;5.660;2023-09-12T07:20:15;24.6;66.2
78475;SHT31;67766;51.964;5.660;2023-09-12T07:22:45;24.6;66.2
78475;SHT31;67766;51.964;5.660;2023-09-12T07:25:15;24.6;65.9
78475;SHT31;67766;51.964;5.660;2023-09-12T07:27:47;24.6;66.1
78475;SHT31;67766;51.964;5.660;2023-09-12T07:30:17;24.7;66.2
78475;SHT31;67766;51.964;5.660;2023-09-12T07:32:46;24.7;66.3
78475;SHT31;67766;51.964;5.660;2023-09-12T07:35:17;24.7;66.2
78475;SHT31;67766;51.964;5.660;2023-09-12T07:37:48;24.7;65.8
78475;SHT31;67766;51.964;5.660;2023-09-12T07:40:17;24.8;65.7
78475;SHT31;67766;51.964;5.660;2023-09-12T07:42:47;24.8;65.9
78475;SHT31;67766;51.964;5.660;2023-09-12T07:45:16;24.8;65.8
78475;SHT31;67766;51.964;5.660;2023-09-12T07:47:47;24.8;66.1
78475;SHT31;67766;51.964;5.660;2023-09-12T07:50:17;24.8;66.1
78475;SHT31;67766;51.964;5.660;2023-09-12T07:52:47;24.8;66.3
78475;SHT31;67766;51.964;5.660;2023-09-12T07:55:19;24.7;66.5
78475;SHT31;67766;51.964;5.660;2023-09-12T07:57:48;24.7;66.4
78475;SHT31;67766;51.964;5.660;2023-09-12T08:00:18;24.7;66.8
78475;SHT31;67766;51.964;5.660;2023-09-12T08:02:48;24.7;67.1
78475;SHT31;67766;51.964;5.660;2023-09-12T08:05:18;24.8;67.4
78475;SHT31;67766;51.964;5.660;2023-09-12T08:07:47;24.9;67.0
78475;SHT31;67766;51.964;5.660;2023-09-12T08:10:17;25.0;66.8
78475;SHT31;67766;51.964;5.660;2023-09-12T08:12:47;25.1;66.3
78475;SHT31;67766;51.964;5.660;2023-09-12T08:15:16;25.3;64.2
78475;SHT31;67766;51.964;5.660;2023-09-12T08:17:46;25.4;64.5
78475;SHT31;67766;51.964;5.660;2023-09-12T08:20:20;25.6;64.9
78475;SHT31;67766;51.964;5.660;2023-09-12T08:22:50;25.8;64.2
78475;SHT31;67766;51.964;5.660;2023-09-12T08:25:19;26.0;63.3
78475;SHT31;67766;51.964;5.660;2023-09-12T08:27:50;26.1;62.3
78475;SHT31;67766;51.964;5.660;2023-09-12T08:30:20;26.3;61.4
78475;SHT31;67766;51.964;5.660;2023-09-12T08:32:49;26.5;60.9
78475;SHT31;67766;51.964;5.660;2023-09-12T08:35:19;26.6;60.5
78475;SHT31;67766;51.964;5.660;2023-09-12T08:37:50;26.8;60.0
78475;SHT31;67766;51.964;5.660;2023-09-12T08:40:20;27.0;59.7
78475;SHT31;67766;51.964;5.660;2023-09-12T08:42:52;27.3;58.6
78475;SHT31;67766;51.964;5.660;2023-09-12T08:45:22;27.5;58.4
78475;SHT31;67766;51.964;5.660;2023-09-12T08:47:53;27.8;57.7
78475;SHT31;67766;51.964;5.660;2023-09-12T08:50:22;28.0;57.1
78475;SHT31;67766;51.964;5.660;2023-09-12T08:52:52;28.3;56.2
78475;SHT31;67766;51.964;5.660;2023-09-12T08:55:22;28.6;54.9
78475;SHT31;67766;51.964;5.660;2023-09-12T08:57:53;28.9;53.8
78475;SHT31;67766;51.964;5.660;2023-09-12T09:00:25;29.2;52.6
78475;SHT31;67766;51.964;5.660;2023-09-12T09:02:56;29.5;51.8
78475;SHT31;67766;51.964;5.660;2023-09-12T09:05:27;29.8;51.1
78475;SHT31;67766;51.964;5.660;2023-09-12T09:07:59;30.0;50.4
78475;SHT31;67766;51.964;5.660;2023-09-12T09:10:30;30.3;49.4
78475;SHT31;67766;51.964;5.660;2023-09-12T09:13:00;30.5;48.8
78475;SHT31;67766;51.964;5.660;2023-09-12T09:15:30;30.6;48.5
78475;SHT31;67766;51.964;5.660;2023-09-12T09:18:02;30.8;48.8
78475;SHT31;67766;51.964;5.660;2023-09-12T09:20:34;30.9;47.3
78475;SHT31;67766;51.964;5.660;2023-09-12T09:23:07;31.0;47.3
78475;SHT31;67766;51.964;5.660;2023-09-12T09:25:40;31.0;47.2
78475;SHT31;67766;51.964;5.660;2023-09-12T09:28:18;31.1;46.9
78475;SHT31;67766;51.964;5.660;2023-09-12T09:30:50;31.1;47.1
78475;SHT31;67766;51.964;5.660;2023-09-12T09:33:22;31.1;47.1
78475;SHT31;67766;51.964;5.660;2023-09-12T09:36:03;31.1;46.5
78475;SHT31;67766;51.964;5.660;2023-09-12T09:38:34;31.1;47.0
78475;SHT31;67766;51.964;5.660;2023-09-12T09:41:06;31.2;47.4
78475;SHT31;67766;51.964;5.660;2023-09-12T09:43:36;31.3;46.6
78475;SHT31;67766;51.964;5.660;2023-09-12T09:46:05;31.4;45.4
78475;SHT31;67766;51.964;5.660;2023-09-12T09:48:35;31.6;45.8
78475;SHT31;67766;51.964;5.660;2023-09-12T09:51:05;31.7;45.3
78475;SHT31;67766;51.964;5.660;2023-09-12T09:53:34;31.8;44.8
78475;SHT31;67766;51.964;5.660;2023-09-12T09:56:11;32.0;44.2
78475;SHT31;67766;51.964;5.660;2023-09-12T09:58:48;32.1;43.9
78475;SHT31;67766;51.964;5.660;2023-09-12T10:01:21;32.1;43.8
78475;SHT31;67766;51.964;5.660;2023-09-12T10:03:52;32.2;43.3
78475;SHT31;67766;51.964;5.660;2023-09-12T10:06:23;32.3;43.1
78475;SHT31;67766;51.964;5.660;2023-09-12T10:08:55;32.3;43.7
78475;SHT31;67766;51.964;5.660;2023-09-12T10:11:28;32.4;43.6
78475;SHT31;67766;51.964;5.660;2023-09-12T10:14:01;32.4;43.9
78475;SHT31;67766;51.964;5.660;2023-09-12T10:16:32;32.4;43.6
78475;SHT31;67766;51.964;5.660;2023-09-12T10:19:24;32.5;44.1
78475;SHT31;67766;51.964;5.660;2023-09-12T10:21:48;32.7;44.1
78475;SHT31;67766;51.964;5.660;2023-09-12T10:24:19;32.9;43.7
78475;SHT31;67766;51.964;5.660;2023-09-12T10:26:52;33.1;43.0
78475;SHT31;67766;51.964;5.660;2023-09-12T10:29:22;33.3;42.3
78475;SHT31;67766;51.964;5.660;2023-09-12T10:31:52;33.5;41.3
78475;SHT31;67766;51.964;5.660;2023-09-12T10:34:24;33.8;41.1
78475;SHT31;67766;51.964;5.660;2023-09-12T10:36:55;34.2;40.0
78475;SHT31;67766;51.964;5.660;2023-09-12T10:39:27;34.5;39.9
78475;SHT31;67766;51.964;5.660;2023-09-12T10:41:59;34.6;37.6
78475;SHT31;67766;51.964;5.660;2023-09-12T10:44:30;34.7;38.3
78475;SHT31;67766;51.964;5.660;2023-09-12T10:47:00;34.7;37.8
78475;SHT31;67766;51.964;5.660;2023-09-12T10:49:31;34.7;38.1
78475;SHT31;67766;51.964;5.660;2023-09-12T10:52:01;34.7;38.3
78475;SHT31;67766;51.964;5.660;2023-09-12T10:54:39;34.6;38.7
78475;SHT31;67766;51.964;5.660;2023-09-12T10:57:11;34.5;38.6
78475;SHT31;67766;51.964;5.660;2023-09-12T11:00:10;34.3;38.5
78475;SHT31;67766;51.964;5.660;2023-09-12T11:02:40;34.0;38.8
78475;SHT31;67766;51.964;5.660;2023-09-12T11:05:37;33.6;39.9
78475;SHT31;67766;51.964;5.660;2023-09-12T11:08:08;33.2;41.2
78475;SHT31;67766;51.964;5.660;2023-09-12T11:10:37;33.0;41.4
78475;SHT31;67766;51.964;5.660;2023-09-12T11:13:18;32.8;42.1
78475;SHT31;67766;51.964;5.660;2023-09-12T11:16:12;32.7;42.2
78475;SHT31;67766;51.964;5.660;2023-09-12T11:19:13;32.6;42.4
78475;SHT31;67766;51.964;5.660;2023-09-12T11:21:45;32.5;42.8
78475;SHT31;67766;51.964;5.660;2023-09-12T11:24:16;32.4;43.1
78475;SHT31;67766;51.964;5.660;2023-09-12T11:27:00;32.3;44.0
78475;SHT31;67766;51.964;5.660;2023-09-12T11:29:35;32.3;44.0
78475;SHT31;67766;51.964;5.660;2023-09-12T11:32:07;32.3;44.1
78475;SHT31;67766;51.964;5.660;2023-09-12T11:34:41;32.4;43.9
78475;SHT31;67766;51.964;5.660;2023-09-12T11:37:24;32.6;43.6
78475;SHT31;67766;51.964;5.660;2023-09-12T11:39:54;32.8;43.1
78475;SHT31;67766;51.964;5.660;2023-09-12T11:42:27;33.0;42.3
78475;SHT31;67766;51.964;5.660;2023-09-12T11:44:59;33.2;41.8
78475;SHT31;67766;51.964;5.660;2023-09-12T11:47:29;33.4;41.7
78475;SHT31;67766;51.964;5.660;2023-09-12T11:49:59;33.5;41.3
78475;SHT31;67766;51.964;5.660;2023-09-12T11:52:28;33.6;40.8
78475;SHT31;67766;51.964;5.660;2023-09-12T11:54:58;33.7;39.9
78475;SHT31;67766;51.964;5.660;2023-09-12T11:57:27;33.8;39.9
78475;SHT31;67766;51.964;5.660;2023-09-12T11:59:57;33.9;40.2
78475;SHT31;67766;51.964;5.660;2023-09-12T12:02:27;33.9;40.0
78475;SHT31;67766;51.964;5.660;2023-09-12T12:04:57;34.0;40.4
78475;SHT31;67766;51.964;5.660;2023-09-12T12:07:27;34.0;40.1
78475;SHT31;67766;51.964;5.660;2023-09-12T12:09:56;34.1;40.4
78475;SHT31;67766;51.964;5.660;2023-09-12T12:12:26;34.1;40.3
78475;SHT31;67766;51.964;5.660;2023-09-12T12:14:55;34.1;40.3
78475;SHT31;67766;51.964;5.660;2023-09-12T12:17:25;34.2;40.3
78475;SHT31;67766;51.964;5.660;2023-09-12T12:19:54;34.2;40.2
78475;SHT31;67766;51.964;5.660;2023-09-12T12:22:24;34.2;40.3
78475;SHT31;67766;51.964;5.660;2023-09-12T12:24:53;34.2;39.8
78475;SHT31;67766;51.964;5.660;2023-09-12T12:27:23;34.2;39.6
78475;SHT31;67766;51.964;5.660;2023-09-12T12:29:52;34.2;39.9
78475;SHT31;67766;51.964;5.660;2023-09-12T12:32:22;34.2;39.8
78475;SHT31;67766;51.964;5.660;2023-09-12T12:34:52;34.2;39.8
78475;SHT31;67766;51.964;5.660;2023-09-12T12:37:29;34.1;40.3
78475;SHT31;67766;51.964;5.660;2023-09-12T12:40:00;34.0;40.3
78475;SHT31;67766;51.964;5.660;2023-09-12T12:42:37;33.9;40.3
78475;SHT31;67766;51.964;5.660;2023-09-12T12:45:13;33.7;40.5
78475;SHT31;67766;51.964;5.660;2023-09-12T12:47:43;33.5;40.9
78475;SHT31;67766;51.964;5.660;2023-09-12T12:50:14;33.4;41.3
78475;SHT31;67766;51.964;5.660;2023-09-12T12:52:47;33.2;40.5
78475;SHT31;67766;51.964;5.660;2023-09-12T12:55:20;33.1;40.3
78475;SHT31;67766;51.964;5.660;2023-09-12T12:57:50;33.0;40.6
78475;SHT31;67766;51.964;5.660;2023-09-12T13:00:20;32.8;40.5
78475;SHT31;67766;51.964;5.660;2023-09-12T13:02:52;32.8;41.7
78475;SHT31;67766;51.964;5.660;2023-09-12T13:05:25;32.7;41.9
78475;SHT31;67766;51.964;5.660;2023-09-12T13:07:56;32.7;41.4
78475;SHT31;67766;51.964;5.660;2023-09-12T13:10:27;32.7;40.4
78475;SHT31;67766;51.964;5.660;2023-09-12T13:12:58;32.6;39.4
78475;SHT31;67766;51.964;5.660;2023-09-12T13:15:27;32.5;39.7
78475;SHT31;67766;51.964;5.660;2023-09-12T13:17:56;32.4;40.2
78475;SHT31;67766;51.964;5.660;2023-09-12T13:20:26;32.4;40.4
78475;SHT31;67766;51.964;5.660;2023-09-12T13:22:55;32.3;41.0
78475;SHT31;67766;51.964;5.660;2023-09-12T13:25:25;32.3;41.2
78475;SHT31;67766;51.964;5.660;2023-09-12T13:27:54;32.3;41.4
78475;SHT31;67766;51.964;5.660;2023-09-12T13:30:23;32.3;41.2
78475;SHT31;67766;51.964;5.660;2023-09-12T13:32:53;32.4;41.4
78475;SHT31;67766;51.964;5.660;2023-09-12T13:35:23;32.4;41.4
78475;SHT31;67766;51.964;5.660;2023-09-12T13:37:52;32.4;41.2
78475;SHT31;67766;51.964;5.660;2023-09-12T13:40:21;32.3;41.5
78475;SHT31;67766;51.964;5.660;2023-09-12T13:42:51;32.3;42.1
78475;SHT31;67766;51.964;5.660;2023-09-12T13:45:20;32.3;42.4
78475;SHT31;67766;51.964;5.660;2023-09-12T13:47:50;32.3;41.7
78475;SHT31;67766;51.964;5.660;2023-09-12T13:50:19;32.2;41.5
78475;SHT31;67766;51.964;5.660;2023-09-12T13:52:51;32.2;41.6
78475;SHT31;67766;51.964;5.660;2023-09-12T13:55:20;32.1;42.2
78475;SHT31;67766;51.964;5.660;2023-09-12T13:57:49;32.1;41.6
78475;SHT31;67766;51.964;5.660;2023-09-12T14:00:21;32.1;41.8
78475;SHT31;67766;51.964;5.660;2023-09-12T14:02:52;32.1;42.2
78475;SHT31;67766;51.964;5.660;2023-09-12T14:05:21;32.0;42.3
78475;SHT31;67766;51.964;5.660;2023-09-12T14:07:52;32.0;42.6
78475;SHT31;67766;51.964;5.660;2023-09-12T14:10:21;31.9;42.7
78475;SHT31;67766;51.964;5.660;2023-09-12T14:12:51;31.9;42.5
78475;SHT31;67766;51.964;5.660;2023-09-12T14:15:22;31.9;42.2
78475;SHT31;67766;51.964;5.660;2023-09-12T14:17:53;31.9;42.0
78475;SHT31;67766;51.964;5.660;2023-09-12T14:20:22;31.9;42.3
78475;SHT31;67766;51.964;5.660;2023-09-12T14:22:52;31.9;42.4
78475;SHT31;67766;51.964;5.660;2023-09-12T14:25:23;31.9;42.5
78475;SHT31;67766;51.964;5.660;2023-09-12T14:27:53;32.0;41.7
78475;SHT31;67766;51.964;5.660;2023-09-12T14:30:22;32.0;42.1
78475;SHT31;67766;51.964;5.660;2023-09-12T14:32:57;32.0;41.7
78475;SHT31;67766;51.964;5.660;2023-09-12T14:35:26;32.0;40.5
78475;SHT31;67766;51.964;5.660;2023-09-12T14:37:56;32.0;40.5
78475;SHT31;67766;51.964;5.660;2023-09-12T14:40:27;32.0;41.2
78475;SHT31;67766;51.964;5.660;2023-09-12T14:42:57;32.0;40.7
78475;SHT31;67766;51.964;5.660;2023-09-12T14:45:27;32.0;41.3
78475;SHT31;67766;51.964;5.660;2023-09-12T14:47:58;32.0;41.2
78475;SHT31;67766;51.964;5.660;2023-09-12T14:50:27;32.0;41.6
78475;SHT31;67766;51.964;5.660;2023-09-12T14:52:58;32.0;41.7
78475;SHT31;67766;51.964;5.660;2023-09-12T14:55:27;32.0;42.0
78475;SHT31;67766;51.964;5.660;2023-09-12T14:57:57;32.1;42.0
78475;SHT31;67766;51.964;5.660;2023-09-12T15:00:27;32.1;41.5
78475;SHT31;67766;51.964;5.660;2023-09-12T15:02:57;32.1;41.6
78475;SHT31;67766;51.964;5.660;2023-09-12T15:05:26;32.1;41.6
78475;SHT31;67766;51.964;5.660;2023-09-12T15:07:56;32.1;41.9
78475;SHT31;67766;51.964;5.660;2023-09-12T15:10:26;32.1;42.1
78475;SHT31;67766;51.964;5.660;2023-09-12T15:12:57;32.1;41.9
78475;SHT31;67766;51.964;5.660;2023-09-12T15:15:27;32.1;41.7
78475;SHT31;67766;51.964;5.660;2023-09-12T15:17:57;32.1;41.8
78475;SHT31;67766;51.964;5.660;2023-09-12T15:20:28;32.1;42.1
78475;SHT31;67766;51.964;5.660;2023-09-12T15:22:58;32.1;41.8
78475;SHT31;67766;51.964;5.660;2023-09-12T15:25:27;32.1;41.9
78475;SHT31;67766;51.964;5.660;2023-09-12T15:27:57;32.1;41.7
78475;SHT31;67766;51.964;5.660;2023-09-12T15:30:26;32.0;42.2
78475;SHT31;67766;51.964;5.660;2023-09-12T15:32:56;32.0;42.4
78475;SHT31;67766;51.964;5.660;2023-09-12T15:35:25;32.0;42.5
78475;SHT31;67766;51.964;5.660;2023-09-12T15:37:54;32.0;42.5
78475;SHT31;67766;51.964;5.660;2023-09-12T15:40:24;32.0;42.3
78475;SHT31;67766;51.964;5.660;2023-09-12T15:42:54;32.0;43.3
78475;SHT31;67766;51.964;5.660;2023-09-12T15:45:24;31.9;44.5
78475;SHT31;67766;51.964;5.660;2023-09-12T15:47:54;31.9;45.2
78475;SHT31;67766;51.964;5.660;2023-09-12T15:50:24;31.9;45.4
78475;SHT31;67766;51.964;5.660;2023-09-12T15:52:53;31.9;45.8
78475;SHT31;67766;51.964;5.660;2023-09-12T15:55:23;31.9;45.9
78475;SHT31;67766;51.964;5.660;2023-09-12T15:57:53;31.9;45.8
78475;SHT31;67766;51.964;5.660;2023-09-12T16:00:22;31.9;45.6
78475;SHT31;67766;51.964;5.660;2023-09-12T16:02:52;31.9;46.0
78475;SHT31;67766;51.964;5.660;2023-09-12T16:05:21;31.9;45.8
78475;SHT31;67766;51.964;5.660;2023-09-12T16:07:51;31.9;45.6
78475;SHT31;67766;51.964;5.660;2023-09-12T16:10:23;31.9;45.6
78475;SHT31;67766;51.964;5.660;2023-09-12T16:12:52;31.9;45.5
78475;SHT31;67766;51.964;5.660;2023-09-12T16:15:22;31.9;45.2
78475;SHT31;67766;51.964;5.660;2023-09-12T16:17:51;31.8;45.0
78475;SHT31;67766;51.964;5.660;2023-09-12T16:20:21;31.8;44.9
78475;SHT31;67766;51.964;5.660;2023-09-12T16:22:51;31.8;44.6
78475;SHT31;67766;51.964;5.660;2023-09-12T16:25:20;31.8;44.7